Latest Weather Observations for Pound Creek

IDV60801

Issued at 6:02 pm EST Friday 29 May 2015 (issued every 30 minutes, with the page automatically refreshed every 10 minutes)

About weather observations | Map of weather stations | Latest weather observations for VIC | Other Formats
Station Details ID: 085099 Name: POUND CREEK Lat: -38.63 Lon: 145.81 Height: 3.0 m
Data from the previous 72 hours. | See also: Recent months at Pound Creek
Date/Time
EST
Temp
°C
App
Temp
°C
Dew
Point
Rel
Hum
%
Delta-T
°C
Wind Press
QNH
hPa
Press
MSL
hPa
Rain
since 9 am
mm
Dir
 
Spd
km/h
Gust
km/h
Spd
kts
Gust
kts
29/06:00pm 11.5 9.2 7.4 76 2.0 NNW 9 13 5 7 1020.3 1020.3 0.0
29/05:30pm 11.3 8.9 7.2 76 2.0 NNW 9 13 5 7 1020.2 1020.2 0.0
29/05:00pm 11.7 9.3 7.2 74 2.2 NW 9 15 5 8 1020.2 1020.2 0.0
29/04:30pm 12.6 10.7 7.5 71 2.5 NW 7 13 4 7 1020.0 1020.0 0.0
29/04:00pm 13.5 10.4 7.3 66 3.0 WNW 13 26 7 14 1019.9 1019.9 0.0
29/03:30pm 14.0 9.8 7.5 65 3.2 WNW 19 30 10 16 1019.9 1019.9 0.0
29/03:00pm 14.2 10.8 7.7 65 3.2 WNW 15 24 8 13 1019.8 1019.8 0.0
29/02:30pm 14.2 10.5 7.9 66 3.1 WNW 17 28 9 15 1019.5 1019.5 0.0
29/02:00pm 13.4 9.0 7.4 67 2.9 WNW 20 30 11 16 1019.5 1019.5 0.0
29/01:30pm 13.3 8.6 7.7 69 2.7 WNW 22 30 12 16 1019.7 1019.7 0.0
29/01:00pm 12.9 8.8 8.0 72 2.4 WNW 19 32 10 17 1019.9 1019.9 0.0
29/12:30pm 12.7 9.0 8.0 73 2.3 WNW 17 30 9 16 1020.0 1020.0 0.0
29/12:00pm 13.7 9.9 9.0 73 2.4 WNW 19 30 10 16 1020.3 1020.3 0.0
29/11:30am 12.8 9.1 8.1 73 2.3 NW 17 32 9 17 1020.6 1020.6 0.0
29/11:00am 12.5 8.8 7.8 73 2.3 WNW 17 32 9 17 1020.8 1020.8 0.0
29/10:30am 13.0 8.5 8.7 75 2.2 WNW 22 33 12 18 1020.7 1020.7 0.0
29/10:00am 12.5 8.0 8.4 76 2.0 WNW 22 37 12 20 1020.5 1020.5 0.0
29/09:30am 12.0 8.3 7.9 76 2.0 WNW 17 32 9 17 1020.2 1020.2 0.0
29/09:00am 11.5 8.1 7.8 78 1.8 NW 15 28 8 15 1020.1 1020.1 7.0
29/08:30am 10.7 7.3 7.6 81 1.5 NW 15 22 8 12 1019.9 1019.9 7.0
29/08:00am 9.7 7.3 7.0 83 1.3 NW 9 19 5 10 1019.7 1019.7 7.0
29/07:30am 9.4 5.8 6.7 83 1.3 NW 15 22 8 12 1019.4 1019.4 7.0
29/07:00am 9.5 6.3 6.8 83 1.3 NW 13 20 7 11 1019.1 1019.1 7.0
29/06:30am 9.8 5.8 6.7 81 1.4 NW 17 26 9 14 1018.6 1018.6 7.0
29/06:00am 9.8 6.2 6.7 81 1.4 NW 15 24 8 13 1018.3 1018.3 7.0
29/05:30am 9.9 6.3 6.8 81 1.5 NW 15 24 8 13 1018.0 1018.0 7.0
29/05:00am 10.2 7.0 6.9 80 1.6 NW 13 20 7 11 1017.7 1017.7 7.0
29/04:30am 10.4 6.8 6.9 79 1.7 NW 15 26 8 14 1017.5 1017.5 7.0
29/04:00am 10.9 7.5 7.6 80 1.6 NW 15 22 8 12 1017.2 1017.2 7.0
29/03:30am 10.5 7.8 7.4 81 1.5 NNW 11 17 6 9 1017.1 1017.1 7.0
29/03:00am 11.0 8.0 7.7 80 1.6 NW 13 24 7 13 1016.9 1016.9 7.0
29/02:30am 11.0 7.7 7.9 81 1.5 NW 15 20 8 11 1016.8 1016.8 7.0
29/02:00am 11.1 7.9 8.3 83 1.4 NW 15 28 8 15 1016.4 1016.4 7.0
29/01:30am 11.4 9.0 8.8 84 1.3 NW 11 22 6 12 1016.1 1016.1 7.0
29/01:00am 11.7 9.1 9.3 85 1.2 NW 13 22 7 12 1015.9 1015.9 7.0
29/12:30am 12.1 10.0 9.7 85 1.2 NW 11 20 6 11 1016.0 1016.0 7.0
29/12:00am 12.4 10.1 10.3 87 1.1 NW 13 20 7 11 1015.8 1015.8 7.0
 
Date/Time
EST
Temp
°C
App
Temp
°C
Dew
Point
Rel
Hum
%
Delta-T
°C
Wind Press
QNH
hPa
Press
MSL
hPa
Rain
since 9 am
mm
Dir
 
Spd
km/h
Gust
km/h
Spd
kts
Gust
kts
28/11:30pm 12.6 10.4 10.7 88 1.0 WNW 13 24 7 13 1015.4 1015.4 7.0
28/11:00pm 12.5 10.5 11.4 93 0.6 WNW 13 19 7 10 1015.4 1015.4 7.0
28/10:30pm 12.5 11.7 11.7 95 0.4 WNW 7 13 4 7 1015.3 1015.3 7.0
28/10:00pm 12.5 11.3 11.7 95 0.4 WNW 9 13 5 7 1015.4 1015.4 6.8
28/09:30pm 12.5 9.4 11.7 95 0.4 W 19 26 10 14 1015.1 1015.1 6.8
28/09:00pm 12.8 9.1 11.5 92 0.7 W 22 32 12 17 1014.9 1014.9 5.2
28/08:30pm 13.3 9.4 12.0 92 0.7 WSW 24 33 13 18 1014.7 1014.7 5.2
28/08:00pm 13.7 10.7 12.1 90 0.9 W 19 30 10 16 1014.2 1014.2 5.2
28/07:30pm 13.8 10.8 12.0 89 1.0 WSW 19 28 10 15 1013.6 1013.6 5.0
28/07:00pm 14.4 10.2 11.2 81 1.7 WNW 24 48 13 26 1013.1 1013.1 4.4
28/06:47pm 14.9 10.1 11.5 80 1.8 W 28 48 15 26 1013.2 1013.2 2.0
28/06:30pm 14.9 10.2 10.5 75 2.3 W 26 44 14 24 1012.7 1012.7 0.8
28/06:26pm 15.4 11.4 10.6 73 2.5 WNW 22 44 12 24 1012.9 1012.9 0.4
28/06:00pm 16.4 14.0 10.0 66 3.4 NNW 13 24 7 13 1011.8 1011.8 0.0
28/05:30pm 16.3 13.5 9.9 66 3.4 N 15 22 8 12 1011.7 1011.7 0.0
28/05:00pm 17.2 13.5 9.4 60 4.1 NNW 19 30 10 16 1011.9 1011.9 0.0
28/04:30pm 18.0 14.4 10.4 61 4.1 NNW 20 37 11 20 1011.7 1011.7 0.0
28/04:00pm 18.4 14.0 10.5 60 4.2 NNW 24 41 13 22 1011.6 1011.6 0.0
28/03:30pm 18.9 15.3 10.5 58 4.5 NNW 20 41 11 22 1012.1 1012.1 0.0
28/03:00pm 19.4 15.2 9.9 54 5.1 NNW 22 43 12 23 1012.2 1012.2 0.0
28/02:30pm 20.0 16.6 10.7 55 5.1 NNW 19 32 10 17 1012.2 1012.2 0.0
28/02:00pm 19.5 14.2 10.0 54 5.1 NNW 28 44 15 24 1012.3 1012.3 0.0
28/01:30pm 19.6 14.8 10.3 55 5.0 NNW 26 46 14 25 1012.5 1012.5 0.0
28/01:02pm 19.9 14.9 10.9 56 4.9 NNW 28 46 15 25 1012.8 1012.8 0.0
28/01:00pm 19.8 14.4 10.8 56 4.9 NNW 30 46 16 25 1012.8 1012.8 0.0
28/12:30pm 20.2 15.9 10.9 55 5.1 NNW 24 41 13 22 1013.3 1013.3 0.0
28/12:04pm 19.7 14.6 10.7 56 4.9 NNW 28 46 15 25 1013.7 1013.7 0.0
28/12:00pm 19.5 13.6 10.5 56 4.9 NNW 32 46 17 25 1013.6 1013.6 0.0
28/11:35am 19.5 14.5 10.8 57 4.7 NNW 28 56 15 30 1014.4 1014.4 0.0
28/11:30am 19.3 15.1 11.1 59 4.5 NNW 24 56 13 30 1014.5 1014.5 0.0
28/11:00am 18.1 13.9 11.2 64 3.7 NNW 24 39 13 21 1015.2 1015.2 0.0
28/10:30am 17.5 14.1 11.1 66 3.5 NNW 20 32 11 17 1015.7 1015.7 0.0
28/10:00am 17.1 13.4 11.4 69 3.1 N 22 32 12 17 1015.7 1015.7 0.0
28/09:30am 16.1 12.8 10.8 71 2.8 NNW 19 28 10 15 1016.0 1016.0 0.0
28/09:00am 15.7 13.2 10.9 73 2.6 NNW 15 24 8 13 1016.1 1016.1 0.0
28/08:30am 15.0 12.7 10.6 75 2.3 N 13 20 7 11 1016.2 1016.2 0.0
28/08:00am 14.1 11.0 10.3 78 2.0 N 17 22 9 12 1016.3 1016.3 0.0
28/07:30am 13.6 10.8 10.0 79 1.9 NNW 15 20 8 11 1016.3 1016.3 0.0
28/07:00am 13.5 10.7 9.9 79 1.9 N 15 24 8 13 1016.2 1016.2 0.0
28/06:30am 13.1 10.2 9.7 80 1.7 N 15 20 8 11 1016.1 1016.1 0.0
28/06:00am 13.8 10.6 9.8 77 2.1 NNW 17 24 9 13 1015.9 1015.9 0.0
28/05:30am 14.5 11.3 9.9 74 2.4 NNW 17 28 9 15 1015.9 1015.9 0.0
28/05:00am 14.5 11.3 9.9 74 2.4 NNW 17 26 9 14 1015.9 1015.9 0.0
28/04:30am 13.9 11.0 9.7 76 2.2 NNW 15 20 8 11 1015.9 1015.9 0.0
28/04:00am 13.6 10.7 9.6 77 2.0 N 15 20 8 11 1016.1 1016.1 0.0
28/03:30am 14.0 11.1 9.8 76 2.2 N 15 20 8 11 1016.1 1016.1 0.0
28/03:00am 13.9 11.5 9.9 77 2.1 N 13 20 7 11 1016.5 1016.5 0.0
28/02:30am 14.0 10.8 9.8 76 2.2 N 17 22 9 12 1016.9 1016.9 0.0
28/02:00am 14.3 11.5 10.1 76 2.2 NNW 15 22 8 12 1016.9 1016.9 0.0
28/01:30am 14.6 11.4 10.0 74 2.4 NNW 17 24 9 13 1016.9 1016.9 0.0
28/01:00am 14.5 11.3 9.9 74 2.4 NNW 17 26 9 14 1016.9 1016.9 0.0
28/12:30am 14.6 11.0 10.0 74 2.4 NNW 19 24 10 13 1017.1 1017.1 0.0
28/12:00am 13.9 10.5 9.3 74 2.3 N 17 24 9 13 1017.4 1017.4 0.0
 
Date/Time
EST
Temp
°C
App
Temp
°C
Dew
Point
Rel
Hum
%
Delta-T
°C
Wind Press
QNH
hPa
Press
MSL
hPa
Rain
since 9 am
mm
Dir
 
Spd
km/h
Gust
km/h
Spd
kts
Gust
kts
27/11:30pm 14.0 11.0 9.2 73 2.4 N 15 22 8 12 1017.6 1017.6 0.0
27/11:00pm 14.1 11.6 9.7 75 2.3 N 13 19 7 10 1017.6 1017.6 0.0
27/10:30pm 13.7 12.0 9.7 77 2.1 NNW 9 13 5 7 1017.6 1017.6 0.0
27/10:00pm 12.9 11.0 9.2 78 1.9 N 9 13 5 7 1017.8 1017.8 0.0
27/09:30pm 13.4 11.2 9.5 77 2.0 N 11 17 6 9 1017.8 1017.8 0.0
27/09:00pm 13.3 11.5 9.4 77 2.0 NNW 9 17 5 9 1018.0 1018.0 0.0
27/08:30pm 13.9 11.0 9.7 76 2.2 NNW 15 20 8 11 1018.0 1018.0 0.0
27/08:00pm 13.9 11.8 9.7 76 2.2 NNW 11 19 6 10 1018.2 1018.2 0.0
27/07:30pm 14.4 12.0 10.0 75 2.3 NNW 13 19 7 10 1018.2 1018.2 0.0
27/07:00pm 14.6 12.2 10.2 75 2.3 NNW 13 20 7 11 1017.9 1017.9 0.0
27/06:30pm 14.7 12.4 10.3 75 2.3 NNW 13 20 7 11 1017.6 1017.6 0.0
27/06:00pm 14.8 12.8 10.2 74 2.4 NNW 11 19 6 10 1017.6 1017.6 0.0
27/05:30pm 14.5 13.4 9.9 74 2.4 NNW 6 7 3 4 1017.3 1017.3 0.0
27/05:00pm 15.2 13.7 10.4 73 2.5 N 9 15 5 8 1017.0 1017.0 0.0
27/04:30pm 16.4 14.6 10.9 70 2.9 N 11 15 6 8 1017.0 1017.0 0.0
27/04:00pm 17.2 15.4 11.0 67 3.3 NNW 11 20 6 11 1017.2 1017.2 0.0
27/03:30pm 17.1 14.6 10.9 67 3.3 NNW 15 24 8 13 1017.3 1017.3 0.0
27/03:00pm 17.1 14.4 10.5 65 3.5 NNW 15 26 8 14 1017.2 1017.2 0.0
27/02:30pm 17.6 15.1 11.2 66 3.5 NNW 15 24 8 13 1017.1 1017.1 0.0
27/02:00pm 17.0 12.9 10.1 64 3.6 NNW 22 32 12 17 1017.4 1017.4 0.0
27/01:30pm 16.9 14.9 11.6 71 2.9 NNW 13 22 7 12 1017.7 1017.7 0.0
27/01:00pm 16.1 12.7 10.4 69 3.0 NNW 19 30 10 16 1018.1 1018.1 0.0
27/12:30pm 16.5 12.7 9.9 65 3.5 NNW 20 32 11 17 1018.4 1018.4 0.0
27/12:00pm 17.5 13.7 9.7 60 4.1 NNW 20 37 11 20 1018.8 1018.8 0.0
27/11:30am 16.8 13.2 10.0 64 3.6 NNW 19 30 10 16 1019.2 1019.2 0.0
27/11:00am 16.7 13.4 9.6 63 3.7 NNW 17 32 9 17 1019.6 1019.6 0.0
27/10:30am 16.6 15.2 10.9 69 3.0 N 9 15 5 8 1019.9 1019.9 0.0
27/10:00am 14.4 12.9 10.6 78 2.0 NNE 9 13 5 7 1019.8 1019.8 0.0
27/09:30am 12.1 9.4 8.8 80 1.6 NNE 13 19 7 10 1019.9 1019.9 0.0
27/09:00am 11.9 10.0 9.1 83 1.4 NNE 9 15 5 8 1020.2 1020.2 0.4
27/08:30am 10.7 8.7 8.5 86 1.1 NNE 9 13 5 7 1020.3 1020.3 0.4
27/08:00am 10.6 8.4 7.8 83 1.3 NNE 9 15 5 8 1020.4 1020.4 0.0
27/07:30am 11.0 9.3 7.5 79 1.7 NNE 6 9 3 5 1020.6 1020.6 0.0
27/07:00am 10.2 9.1 7.1 81 1.5 E 2 2 1 1 1020.5 1020.5 0.0
27/06:30am 10.5 9.1 7.4 81 1.5 NNE 4 6 2 3 1020.6 1020.6 0.0
27/06:00am 10.5 8.1 7.2 80 1.6 NNE 9 13 5 7 1020.5 1020.5 0.0
27/05:30am 10.6 8.8 7.3 80 1.6 NNE 6 7 3 4 1020.5 1020.5 0.0
27/05:00am 10.6 8.3 7.3 80 1.6 NNE 9 15 5 8 1020.6 1020.6 0.0
27/04:30am 10.6 8.6 7.3 80 1.6 NNE 7 11 4 6 1020.7 1020.7 0.0
27/04:00am 10.4 8.1 7.3 81 1.5 N 9 13 5 7 1020.9 1020.9 0.0
27/03:30am 10.7 8.0 7.2 79 1.7 N 11 15 6 8 1021.0 1021.0 0.0
27/03:00am 11.0 7.9 7.1 77 1.9 NNE 13 20 7 11 1021.3 1021.3 0.0
27/02:30am 10.9 7.8 7.2 78 1.8 NNE 13 19 7 10 1021.7 1021.7 0.0
27/02:00am 10.9 7.8 7.2 78 1.8 NNE 13 19 7 10 1021.9 1021.9 0.0
27/01:30am 10.8 7.6 6.9 77 1.8 NNE 13 20 7 11 1022.1 1022.1 0.0
27/01:00am 11.1 7.6 7.0 76 1.9 NNE 15 19 8 10 1022.5 1022.5 0.0
27/12:30am 11.4 7.9 7.1 75 2.1 NNE 15 22 8 12 1023.0 1023.0 0.0
27/12:00am 11.7 7.8 7.2 74 2.1 NE 17 20 9 11 1023.3 1023.3 0.0
 
Date/Time
EST
Temp
°C
App
Temp
°C
Dew
Point
Rel
Hum
%
Delta-T
°C
Wind Press
QNH
hPa
Press
MSL
hPa
Rain
since 9 am
mm
Dir
 
Spd
km/h
Gust
km/h
Spd
kts
Gust
kts
26/11:30pm 11.7 8.2 7.2 74 2.2 NNE 15 22 8 12 1023.5 1023.5 0.0
26/11:00pm 11.7 8.6 7.2 74 2.1 NNE 13 19 7 10 1023.8 1023.8 0.0
26/10:30pm 12.0 8.5 7.3 73 2.3 NNE 15 22 8 12 1023.8 1023.8 0.0
26/10:00pm 12.3 8.5 7.4 72 2.4 NE 17 24 9 13 1023.8 1023.8 0.0
26/09:30pm 11.6 9.0 7.7 77 1.9 NNE 11 17 6 9 1024.1 1024.1 0.0
26/09:00pm 10.7 8.6 8.1 84 1.3 NNE 9 13 5 7 1024.4 1024.4 0.0
26/08:30pm 9.9 8.2 8.2 89 0.8 NNE 7 11 4 6 1024.5 1024.5 0.0
26/08:00pm 9.0 8.4 7.6 91 0.7 CALM 0 0 0 0 1024.6 1024.6 0.0
26/07:30pm 9.6 9.1 7.9 89 0.8 CALM 0 0 0 0 1024.7 1024.7 0.0
26/07:00pm 9.8 9.3 7.9 88 0.9 CALM 0 0 0 0 1025.1 1025.1 0.0
26/06:30pm 10.4 10.1 8.5 88 0.9 CALM 0 0 0 0 1025.3 1025.3 0.0

Other Formats:

Comma delimited format used in spreadsheet applications
http://www.bom.gov.au/fwo/IDV60801/IDV60801.94886.axf

JavaScript Object Notation format (JSON) in row-major order
http://www.bom.gov.au/fwo/IDV60801/IDV60801.94886.json